createdAt,value
2023-01-20T00:02:22.342Z,0.88
2023-01-20T00:05:24.876Z,0.86
2023-01-20T00:08:27.362Z,0.65
2023-01-20T00:11:30.266Z,0.58
2023-01-20T00:14:32.426Z,0.64
2023-01-20T00:17:34.851Z,0.63
2023-01-20T00:20:37.119Z,0.72
2023-01-20T00:23:40.448Z,0.65
2023-01-20T00:26:42.603Z,0.70
2023-01-20T00:29:45.153Z,0.75
2023-01-20T00:32:47.414Z,0.78
2023-01-20T00:35:49.859Z,0.71
2023-01-20T00:38:52.589Z,0.74
2023-01-20T00:41:55.129Z,0.71
2023-01-20T00:44:57.593Z,0.60
2023-01-20T00:48:00.130Z,0.69
2023-01-20T00:51:02.666Z,0.66
2023-01-20T00:54:05.181Z,0.71
2023-01-20T00:57:07.365Z,0.82
2023-01-20T01:00:10.446Z,0.74
2023-01-20T01:03:12.735Z,0.69
2023-01-20T01:06:17.637Z,0.73
2023-01-20T01:09:21.755Z,0.76
2023-01-20T01:12:24.298Z,0.82
2023-01-20T01:15:27.418Z,0.74
2023-01-20T01:18:29.903Z,0.72
2023-01-20T01:21:32.248Z,0.76
2023-01-20T01:24:34.646Z,0.77
2023-01-20T01:27:36.909Z,0.66
2023-01-20T01:30:39.478Z,0.74
2023-01-20T01:33:41.864Z,0.76
2023-01-20T01:36:44.260Z,0.70
2023-01-20T01:39:46.580Z,0.68
2023-01-20T01:42:49.089Z,0.65
2023-01-20T01:45:51.306Z,0.64
2023-01-20T01:48:54.153Z,0.75
2023-01-20T01:52:06.792Z,0.79
2023-01-20T01:55:10.002Z,0.82
2023-01-20T01:58:17.114Z,0.84
2023-01-20T02:01:20.753Z,0.74
2023-01-20T02:04:26.492Z,0.80
2023-01-20T02:07:31.877Z,0.89
2023-01-20T02:10:34.083Z,0.81
2023-01-20T02:13:36.610Z,0.71
2023-01-20T02:16:47.938Z,0.76
2023-01-20T02:20:18.548Z,0.77
2023-01-20T02:23:53.150Z,0.69
2023-01-20T02:27:11.173Z,0.67
2023-01-20T02:30:32.140Z,0.56
2023-01-20T02:33:42.671Z,0.45
2023-01-20T02:36:54.379Z,0.58
2023-01-20T02:40:16.894Z,0.54
2023-01-20T02:43:38.599Z,0.55
2023-01-20T02:46:52.162Z,0.52
2023-01-20T02:49:56.504Z,0.63
2023-01-20T02:53:02.373Z,0.69
2023-01-20T02:56:04.874Z,0.81
2023-01-20T02:59:13.293Z,0.81
2023-01-20T03:02:20.188Z,0.87
2023-01-20T03:05:35.439Z,0.93
2023-01-20T03:08:40.824Z,1.06
2023-01-20T03:11:50.515Z,1.10
2023-01-20T03:14:53.568Z,1.24
2023-01-20T03:17:56.093Z,1.14
2023-01-20T03:20:59.929Z,1.19
2023-01-20T03:24:04.363Z,1.32
2023-01-20T03:27:06.915Z,1.27
2023-01-20T03:30:14.544Z,1.34
2023-01-20T03:33:17.778Z,1.42
2023-01-20T03:36:21.656Z,1.39
2023-01-20T03:39:25.050Z,1.29
2023-01-20T03:42:53.678Z,1.29
2023-01-20T03:46:03.001Z,1.29
2023-01-20T03:49:26.119Z,1.41
2023-01-20T03:52:54.038Z,1.30
2023-01-20T03:55:59.264Z,1.40
2023-01-20T03:59:03.641Z,1.41
2023-01-20T04:02:08.682Z,1.39
2023-01-20T04:05:12.072Z,1.33
2023-01-20T04:08:16.209Z,1.28
2023-01-20T04:11:18.873Z,1.29
2023-01-20T04:14:21.006Z,1.25
2023-01-20T04:17:30.537Z,1.43
2023-01-20T04:20:32.729Z,1.33
2023-01-20T04:23:51.415Z,1.28
2023-01-20T04:26:53.575Z,1.27
2023-01-20T04:29:56.030Z,1.14
2023-01-20T04:32:58.187Z,1.02
2023-01-20T04:36:00.629Z,0.96
2023-01-20T04:39:02.777Z,0.96
2023-01-20T04:42:05.302Z,0.87
2023-01-20T04:45:07.958Z,1.03
2023-01-20T04:48:10.759Z,1.03
2023-01-20T04:51:13.203Z,1.08
2023-01-20T04:54:15.650Z,1.11
2023-01-20T04:57:17.860Z,1.25
2023-01-20T05:00:20.647Z,1.35
2023-01-20T05:03:22.883Z,1.39
2023-01-20T05:06:25.372Z,1.45
2023-01-20T05:09:27.544Z,1.38
2023-01-20T05:12:30.015Z,1.43
2023-01-20T05:15:32.326Z,1.49
2023-01-20T05:18:35.194Z,1.56
2023-01-20T05:21:37.479Z,1.51
2023-01-20T05:24:39.945Z,1.62
2023-01-20T05:27:42.113Z,1.71
2023-01-20T05:30:44.649Z,1.69
2023-01-20T05:33:46.884Z,1.76
2023-01-20T05:36:53.767Z,1.77
2023-01-20T05:39:56.006Z,1.82
2023-01-20T05:43:02.646Z,1.88
2023-01-20T05:46:05.469Z,1.91
2023-01-20T05:49:09.755Z,1.90
2023-01-20T05:52:11.981Z,1.86
2023-01-20T05:55:14.674Z,1.90
2023-01-20T05:58:17.048Z,2.10
2023-01-20T06:01:19.727Z,2.02
2023-01-20T06:04:22.711Z,1.92
2023-01-20T06:07:24.989Z,2.17
2023-01-20T06:10:28.146Z,2.12
2023-01-20T06:13:30.339Z,2.17
2023-01-20T06:16:33.093Z,2.27
2023-01-20T06:19:35.504Z,2.22
2023-01-20T06:22:38.387Z,2.05
2023-01-20T06:25:42.012Z,2.00
2023-01-20T06:28:44.715Z,2.17
2023-01-20T06:31:47.695Z,2.03
2023-01-20T06:34:50.204Z,2.03
2023-01-20T06:37:52.400Z,2.10
2023-01-20T06:41:02.742Z,2.17
2023-01-20T06:44:05.325Z,2.24
2023-01-20T06:47:08.088Z,2.25
2023-01-20T06:50:10.420Z,2.26
2023-01-20T06:53:12.880Z,2.08
2023-01-20T06:56:15.490Z,2.15
2023-01-20T06:59:17.956Z,2.31
2023-01-20T07:02:20.134Z,2.37
2023-01-20T07:05:22.566Z,2.27
2023-01-20T07:08:24.887Z,2.27
2023-01-20T07:11:28.994Z,2.36
2023-01-20T07:14:31.178Z,2.44
2023-01-20T07:17:33.745Z,2.46
2023-01-20T07:20:36.225Z,2.46
2023-01-20T07:23:38.881Z,2.54
2023-01-20T07:26:41.074Z,2.46
2023-01-20T07:29:43.740Z,2.45
2023-01-20T07:32:45.979Z,2.41
2023-01-20T07:35:53.631Z,2.55
2023-01-20T07:38:56.152Z,2.60
2023-01-20T07:41:58.547Z,2.67
2023-01-20T07:45:00.886Z,2.54
2023-01-20T07:48:04.548Z,2.54
2023-01-20T07:51:10.000Z,2.64
2023-01-20T07:54:12.608Z,2.56
2023-01-20T07:57:14.803Z,2.51
2023-01-20T08:00:18.998Z,2.65
2023-01-20T08:03:21.834Z,2.58
2023-01-20T08:06:25.658Z,2.62
2023-01-20T08:09:28.333Z,2.66
2023-01-20T08:12:30.544Z,2.64
2023-01-20T08:15:32.978Z,2.65
2023-01-20T08:18:36.532Z,2.67
2023-01-20T08:21:38.955Z,2.51
2023-01-20T08:24:41.184Z,2.64
2023-01-20T08:27:44.147Z,2.61
2023-01-20T08:30:46.510Z,2.60
2023-01-20T08:33:52.923Z,2.68
2023-01-20T08:36:57.496Z,2.78
2023-01-20T08:40:00.104Z,2.80
2023-01-20T08:43:02.330Z,2.89
2023-01-20T08:46:10.996Z,2.77
2023-01-20T08:49:16.173Z,2.77
2023-01-20T08:52:18.620Z,2.96
2023-01-20T08:55:20.789Z,2.98
2023-01-20T08:58:25.468Z,3.00
2023-01-20T09:01:30.222Z,3.16
2023-01-20T09:04:36.874Z,3.12
2023-01-20T09:07:39.076Z,3.07
2023-01-20T09:10:41.513Z,3.03
2023-01-20T09:13:43.679Z,3.02
2023-01-20T09:16:46.463Z,3.00
2023-01-20T09:19:48.629Z,3.14
2023-01-20T09:22:51.391Z,3.22
2023-01-20T09:25:53.756Z,3.41
2023-01-20T09:28:56.176Z,3.50
2023-01-20T09:31:58.625Z,3.40
2023-01-20T09:35:01.199Z,3.52
2023-01-20T09:38:22.306Z,3.45
2023-01-20T09:41:55.904Z,3.42
2023-01-20T09:45:26.126Z,3.38
2023-01-20T09:49:10.309Z,3.57
2023-01-20T09:52:48.660Z,3.60
2023-01-20T09:55:52.259Z,3.71
2023-01-20T09:59:09.095Z,3.86
2023-01-20T10:02:22.457Z,3.94
2023-01-20T10:05:32.952Z,3.90
2023-01-20T10:09:09.515Z,3.58
2023-01-20T10:12:22.010Z,3.91
2023-01-20T10:15:41.751Z,3.92
2023-01-20T10:18:51.871Z,3.89
2023-01-20T10:22:10.051Z,3.94
2023-01-20T10:25:18.037Z,4.12
2023-01-20T10:28:30.851Z,4.06
2023-01-20T10:31:38.023Z,4.26
2023-01-20T10:34:47.801Z,4.28
2023-01-20T10:37:52.526Z,4.41
2023-01-20T10:41:03.489Z,4.57
2023-01-20T10:44:12.020Z,4.73
2023-01-20T10:47:41.573Z,4.69
2023-01-20T10:50:52.770Z,4.67
2023-01-20T10:54:23.865Z,4.68
2023-01-20T10:57:26.579Z,4.59
2023-01-20T11:00:31.407Z,4.54
2023-01-20T11:03:40.910Z,4.48
2023-01-20T11:06:43.456Z,4.46
2023-01-20T11:09:47.950Z,4.41
2023-01-20T11:12:52.787Z,4.29
2023-01-20T11:15:59.492Z,4.18
2023-01-20T11:19:07.458Z,4.28
2023-01-20T11:22:12.637Z,4.15
2023-01-20T11:25:27.849Z,4.05
2023-01-20T11:28:45.320Z,3.99
2023-01-20T11:31:53.428Z,4.07
2023-01-20T11:34:56.753Z,4.08
2023-01-20T11:38:20.071Z,3.89
2023-01-20T11:41:22.588Z,3.95
2023-01-20T11:44:25.148Z,3.84
2023-01-20T11:47:31.283Z,3.60
2023-01-20T11:50:38.840Z,3.55
2023-01-20T11:53:41.371Z,3.46
2023-01-20T11:56:46.341Z,3.31
2023-01-20T11:59:49.795Z,3.21
2023-01-20T12:03:00.738Z,3.07
2023-01-20T12:06:26.110Z,2.99
2023-01-20T12:09:34.877Z,2.91
2023-01-20T12:12:45.599Z,2.68
2023-01-20T12:15:55.324Z,2.56
2023-01-20T12:19:04.804Z,2.55
2023-01-20T12:22:15.717Z,2.45
2023-01-20T12:25:30.186Z,2.53
2023-01-20T12:28:59.205Z,2.53
2023-01-20T12:32:01.876Z,2.63
2023-01-20T12:35:04.276Z,2.63
2023-01-20T12:38:08.604Z,2.62
2023-01-20T12:41:23.397Z,2.56
2023-01-20T12:44:44.579Z,2.62
2023-01-20T12:47:55.805Z,2.54
2023-01-20T12:51:22.023Z,2.48
2023-01-20T12:55:02.060Z,2.37
2023-01-20T12:58:15.147Z,2.37
2023-01-20T13:01:23.184Z,2.39
2023-01-20T13:04:53.406Z,2.39
2023-01-20T13:08:14.184Z,2.25
2023-01-20T13:11:32.911Z,2.06
2023-01-20T13:14:44.253Z,1.89
2023-01-20T13:18:11.760Z,1.78
2023-01-20T13:21:20.929Z,1.77
2023-01-20T13:24:29.265Z,1.66
2023-01-20T13:27:37.309Z,1.64
2023-01-20T13:30:47.937Z,1.69
2023-01-20T13:33:50.258Z,1.57
2023-01-20T13:37:03.310Z,1.57
2023-01-20T13:40:37.668Z,1.56
2023-01-20T13:43:48.830Z,1.57
2023-01-20T13:46:51.117Z,1.49
2023-01-20T13:49:54.564Z,1.53
2023-01-20T13:52:59.835Z,1.44
2023-01-20T13:56:02.630Z,1.37
2023-01-20T13:59:07.654Z,1.25
2023-01-20T14:02:26.435Z,1.26
2023-01-20T14:05:31.896Z,1.18
2023-01-20T14:08:48.809Z,1.15
2023-01-20T14:11:53.352Z,1.08
2023-01-20T14:14:55.850Z,1.05
2023-01-20T14:17:59.921Z,0.96
2023-01-20T14:21:18.725Z,0.87
2023-01-20T14:24:37.757Z,0.88
2023-01-20T14:27:44.230Z,0.87
2023-01-20T14:30:47.930Z,0.89
2023-01-20T14:34:00.927Z,0.87
2023-01-20T14:37:28.382Z,0.81
2023-01-20T14:40:33.851Z,0.81
2023-01-20T14:43:36.319Z,0.71
2023-01-20T14:46:39.790Z,0.66
2023-01-20T14:49:43.553Z,0.59
2023-01-20T14:52:46.225Z,0.58
2023-01-20T14:56:01.923Z,0.54
2023-01-20T14:59:04.144Z,0.58
2023-01-20T15:02:17.849Z,0.52
2023-01-20T15:05:28.397Z,0.58
2023-01-20T15:08:34.145Z,0.59
2023-01-20T15:11:36.687Z,0.58
2023-01-20T15:14:40.831Z,0.52
2023-01-20T15:18:04.765Z,0.44
2023-01-20T15:21:17.194Z,0.42
2023-01-20T15:24:30.389Z,0.42
2023-01-20T15:27:34.608Z,0.38
2023-01-20T15:30:36.804Z,0.36
2023-01-20T15:33:39.345Z,0.37
2023-01-20T15:36:41.554Z,0.44
2023-01-20T15:39:44.300Z,0.39
2023-01-20T15:42:47.863Z,0.43
2023-01-20T15:45:50.322Z,0.42
2023-01-20T15:48:52.454Z,0.42
2023-01-20T15:51:54.923Z,0.37
2023-01-20T15:54:57.053Z,0.39
2023-01-20T15:57:59.486Z,0.35
2023-01-20T16:01:01.745Z,0.30
2023-01-20T16:04:04.398Z,0.29
2023-01-20T16:07:12.372Z,0.32
2023-01-20T16:10:19.754Z,0.27
2023-01-20T16:13:22.018Z,0.17
2023-01-20T16:16:26.740Z,0.24
2023-01-20T16:19:30.247Z,0.25
2023-01-20T16:22:32.785Z,0.35
2023-01-20T16:25:35.467Z,0.28
2023-01-20T16:28:37.874Z,0.28
2023-01-20T16:31:40.002Z,0.25
2023-01-20T16:34:42.864Z,0.31
2023-01-20T16:37:47.476Z,0.28
2023-01-20T16:40:52.869Z,0.36
2023-01-20T16:43:55.946Z,0.27
2023-01-20T16:47:00.133Z,0.18
2023-01-20T16:50:02.273Z,0.20
2023-01-20T16:53:04.776Z,0.26
2023-01-20T16:56:15.161Z,0.18
2023-01-20T16:59:17.868Z,0.16
2023-01-20T17:02:20.074Z,0.12
2023-01-20T17:05:25.239Z,0.02
2023-01-20T17:08:27.427Z,0.06
2023-01-20T17:11:31.448Z,0.00
2023-01-20T17:14:33.755Z,-0.12
2023-01-20T17:17:38.573Z,-0.10
2023-01-20T17:20:40.794Z,-0.10
2023-01-20T17:23:43.289Z,-0.09
2023-01-20T17:26:45.426Z,-0.15
2023-01-20T17:29:47.853Z,-0.21
2023-01-20T17:32:50.054Z,-0.18
2023-01-20T17:36:00.415Z,-0.21
2023-01-20T17:39:03.956Z,-0.20
2023-01-20T17:42:06.653Z,-0.23
2023-01-20T17:45:09.321Z,-0.23
2023-01-20T17:48:11.857Z,-0.29
2023-01-20T17:51:25.786Z,-0.30
2023-01-20T17:54:28.419Z,-0.29
2023-01-20T17:57:32.491Z,-0.27
2023-01-20T18:00:34.900Z,-0.28
2023-01-20T18:03:39.061Z,-0.23
2023-01-20T18:06:41.855Z,-0.24
2023-01-20T18:09:44.379Z,-0.25
2023-01-20T18:12:46.576Z,-0.19
2023-01-20T18:15:49.028Z,-0.15
2023-01-20T18:18:51.155Z,-0.14
2023-01-20T18:21:53.597Z,-0.12
2023-01-20T18:24:55.755Z,-0.10
2023-01-20T18:27:58.226Z,-0.14
2023-01-20T18:31:09.367Z,-0.02
2023-01-20T18:34:15.622Z,-0.01
2023-01-20T18:37:17.829Z,0.02
2023-01-20T18:40:20.326Z,-0.02
2023-01-20T18:43:22.492Z,0.03
2023-01-20T18:46:26.158Z,0.08
2023-01-20T18:49:28.374Z,0.14
2023-01-20T18:52:30.831Z,0.16
2023-01-20T18:55:32.970Z,0.15
2023-01-20T18:58:38.383Z,0.14
2023-01-20T19:01:41.265Z,0.21
2023-01-20T19:04:43.825Z,0.16
2023-01-20T19:07:50.592Z,0.24
2023-01-20T19:10:52.985Z,0.18
2023-01-20T19:13:55.666Z,0.25
2023-01-20T19:16:58.093Z,0.24
2023-01-20T19:20:00.656Z,0.22
2023-01-20T19:23:03.071Z,0.28
2023-01-20T19:26:08.167Z,0.28
2023-01-20T19:29:12.886Z,0.29
2023-01-20T19:32:15.026Z,0.28
2023-01-20T19:35:17.472Z,0.35
2023-01-20T19:38:19.583Z,0.41
2023-01-20T19:41:27.636Z,0.42
2023-01-20T19:44:29.889Z,0.39
2023-01-20T19:47:34.031Z,0.43
2023-01-20T19:50:36.747Z,0.43
2023-01-20T19:53:40.161Z,0.42
2023-01-20T19:56:42.324Z,0.45
2023-01-20T19:59:44.999Z,0.51
2023-01-20T20:02:47.373Z,0.47
2023-01-20T20:05:49.830Z,0.45
2023-01-20T20:08:53.011Z,0.47
2023-01-20T20:11:56.123Z,0.46
2023-01-20T20:14:58.959Z,0.44
2023-01-20T20:18:01.384Z,0.44
2023-01-20T20:21:05.168Z,0.44
2023-01-20T20:24:08.338Z,0.43
2023-01-20T20:27:10.449Z,0.44
2023-01-20T20:30:13.065Z,0.37
2023-01-20T20:33:15.292Z,0.46
2023-01-20T20:36:19.797Z,0.46
2023-01-20T20:39:21.961Z,0.54
2023-01-20T20:42:24.390Z,0.56
2023-01-20T20:45:26.580Z,0.54
2023-01-20T20:48:29.479Z,0.52
2023-01-20T20:51:33.750Z,0.58
2023-01-20T20:54:36.157Z,0.63
2023-01-20T20:57:38.368Z,0.62
2023-01-20T21:00:40.836Z,0.69
2023-01-20T21:03:43.773Z,0.70
2023-01-20T21:06:46.233Z,0.73
2023-01-20T21:09:48.397Z,0.71
2023-01-20T21:12:50.918Z,0.73
2023-01-20T21:16:01.494Z,0.75
2023-01-20T21:19:05.041Z,0.71
2023-01-20T21:22:07.359Z,0.71
2023-01-20T21:25:10.132Z,0.66
2023-01-20T21:28:12.267Z,0.67
2023-01-20T21:31:23.259Z,0.59
2023-01-20T21:34:25.535Z,0.54
2023-01-20T21:37:28.022Z,0.57
2023-01-20T21:40:30.223Z,0.55
2023-01-20T21:43:52.307Z,0.64
2023-01-20T21:46:59.281Z,0.65
2023-01-20T21:50:20.606Z,0.76
2023-01-20T21:53:22.734Z,0.78
2023-01-20T21:56:25.181Z,0.81
2023-01-20T21:59:27.621Z,0.82
2023-01-20T22:02:30.250Z,0.76
2023-01-20T22:05:32.629Z,0.74
2023-01-20T22:08:34.869Z,0.72
2023-01-20T22:11:37.561Z,0.75
2023-01-20T22:14:40.167Z,0.76
2023-01-20T22:17:42.854Z,0.80
2023-01-20T22:20:45.019Z,0.78
2023-01-20T22:23:47.929Z,0.88
2023-01-20T22:26:50.340Z,0.84
2023-01-20T22:29:52.782Z,0.81
2023-01-20T22:32:54.944Z,0.75
2023-01-20T22:35:57.342Z,0.82
2023-01-20T22:38:59.599Z,0.78
2023-01-20T22:42:02.118Z,0.76
2023-01-20T22:45:04.549Z,0.79
2023-01-20T22:48:07.025Z,0.74
2023-01-20T22:51:12.293Z,0.70
2023-01-20T22:54:14.801Z,0.80
2023-01-20T22:57:16.952Z,0.81
2023-01-20T23:00:19.677Z,0.71
2023-01-20T23:03:21.896Z,0.73
2023-01-20T23:06:26.049Z,0.75
2023-01-20T23:09:28.276Z,0.70
2023-01-20T23:12:30.693Z,0.73
2023-01-20T23:15:33.166Z,0.61
2023-01-20T23:18:35.593Z,0.62
2023-01-20T23:21:37.832Z,0.61
2023-01-20T23:24:40.292Z,0.61
2023-01-20T23:27:42.415Z,0.61
2023-01-20T23:30:44.937Z,0.68
2023-01-20T23:33:47.628Z,0.74
2023-01-20T23:36:50.052Z,0.75
2023-01-20T23:39:52.947Z,0.77
2023-01-20T23:42:55.353Z,0.73
2023-01-20T23:45:59.402Z,0.80
2023-01-20T23:49:01.862Z,0.73
2023-01-20T23:52:05.222Z,0.70
2023-01-20T23:55:08.084Z,0.75
2023-01-20T23:58:10.246Z,0.78
